sensor_id;sensor_type;location;lat;lon;timestamp;P1;durP1;ratioP1;P2;durP2;ratioP2
60851;SDS011;48553;50.766;2.900;2022-07-11T00:02:14;3.25;;;1.67;;
60851;SDS011;48553;50.766;2.900;2022-07-11T00:05:15;3.97;;;2.00;;
60851;SDS011;48553;50.766;2.900;2022-07-11T00:08:16;3.53;;;1.95;;
60851;SDS011;48553;50.766;2.900;2022-07-11T00:11:16;4.53;;;2.20;;
60851;SDS011;48553;50.766;2.900;2022-07-11T00:14:17;2.63;;;1.88;;
60851;SDS011;48553;50.766;2.900;2022-07-11T00:17:18;4.60;;;2.20;;
60851;SDS011;48553;50.766;2.900;2022-07-11T00:20:18;3.58;;;2.28;;
60851;SDS011;48553;50.766;2.900;2022-07-11T00:23:19;5.00;;;2.47;;
60851;SDS011;48553;50.766;2.900;2022-07-11T00:26:19;6.20;;;2.40;;
60851;SDS011;48553;50.766;2.900;2022-07-11T00:29:20;4.00;;;2.30;;
60851;SDS011;48553;50.766;2.900;2022-07-11T00:32:20;3.78;;;2.45;;
60851;SDS011;48553;50.766;2.900;2022-07-11T00:35:21;3.50;;;2.22;;
60851;SDS011;48553;50.766;2.900;2022-07-11T00:38:21;4.55;;;2.50;;
60851;SDS011;48553;50.766;2.900;2022-07-11T00:41:21;3.95;;;2.28;;
60851;SDS011;48553;50.766;2.900;2022-07-11T00:44:22;5.38;;;2.30;;
60851;SDS011;48553;50.766;2.900;2022-07-11T00:47:22;3.30;;;2.30;;
60851;SDS011;48553;50.766;2.900;2022-07-11T00:50:23;4.78;;;2.60;;
60851;SDS011;48553;50.766;2.900;2022-07-11T00:53:27;4.38;;;2.50;;
60851;SDS011;48553;50.766;2.900;2022-07-11T00:56:29;3.95;;;2.65;;
60851;SDS011;48553;50.766;2.900;2022-07-11T00:59:30;3.83;;;2.50;;
60851;SDS011;48553;50.766;2.900;2022-07-11T01:02:31;5.38;;;2.65;;
60851;SDS011;48553;50.766;2.900;2022-07-11T01:05:31;5.05;;;2.80;;
60851;SDS011;48553;50.766;2.900;2022-07-11T01:08:33;4.85;;;3.10;;
60851;SDS011;48553;50.766;2.900;2022-07-11T01:11:35;6.47;;;3.00;;
60851;SDS011;48553;50.766;2.900;2022-07-11T01:14:36;6.35;;;3.10;;
60851;SDS011;48553;50.766;2.900;2022-07-11T01:17:36;4.38;;;3.20;;
60851;SDS011;48553;50.766;2.900;2022-07-11T01:20:37;4.90;;;3.30;;
60851;SDS011;48553;50.766;2.900;2022-07-11T01:23:37;4.43;;;3.22;;
60851;SDS011;48553;50.766;2.900;2022-07-11T01:26:37;6.03;;;3.25;;
60851;SDS011;48553;50.766;2.900;2022-07-11T01:29:38;5.35;;;3.55;;
60851;SDS011;48553;50.766;2.900;2022-07-11T01:32:39;7.22;;;3.83;;
60851;SDS011;48553;50.766;2.900;2022-07-11T01:35:40;6.40;;;3.63;;
60851;SDS011;48553;50.766;2.900;2022-07-11T01:38:40;5.50;;;3.88;;
60851;SDS011;48553;50.766;2.900;2022-07-11T01:41:41;6.15;;;4.18;;
60851;SDS011;48553;50.766;2.900;2022-07-11T01:44:41;7.28;;;4.20;;
60851;SDS011;48553;50.766;2.900;2022-07-11T01:47:41;6.47;;;4.35;;
60851;SDS011;48553;50.766;2.900;2022-07-11T01:50:42;7.47;;;4.22;;
60851;SDS011;48553;50.766;2.900;2022-07-11T01:53:42;5.45;;;4.20;;
60851;SDS011;48553;50.766;2.900;2022-07-11T01:56:43;6.10;;;4.13;;
60851;SDS011;48553;50.766;2.900;2022-07-11T01:59:43;6.93;;;4.60;;
60851;SDS011;48553;50.766;2.900;2022-07-11T02:02:44;7.00;;;4.47;;
60851;SDS011;48553;50.766;2.900;2022-07-11T02:05:45;6.63;;;4.40;;
60851;SDS011;48553;50.766;2.900;2022-07-11T02:08:45;8.68;;;4.95;;
60851;SDS011;48553;50.766;2.900;2022-07-11T02:11:46;7.38;;;4.60;;
60851;SDS011;48553;50.766;2.900;2022-07-11T02:14:46;7.38;;;5.05;;
60851;SDS011;48553;50.766;2.900;2022-07-11T02:17:47;7.28;;;4.88;;
60851;SDS011;48553;50.766;2.900;2022-07-11T02:20:47;7.15;;;5.20;;
60851;SDS011;48553;50.766;2.900;2022-07-11T02:23:51;7.60;;;4.93;;
60851;SDS011;48553;50.766;2.900;2022-07-11T02:26:51;7.50;;;5.20;;
60851;SDS011;48553;50.766;2.900;2022-07-11T02:29:52;7.03;;;5.43;;
60851;SDS011;48553;50.766;2.900;2022-07-11T02:32:53;7.80;;;5.30;;
60851;SDS011;48553;50.766;2.900;2022-07-11T02:35:53;9.35;;;5.50;;
60851;SDS011;48553;50.766;2.900;2022-07-11T02:38:54;7.40;;;5.43;;
60851;SDS011;48553;50.766;2.900;2022-07-11T02:41:54;8.65;;;5.78;;
60851;SDS011;48553;50.766;2.900;2022-07-11T02:44:54;8.07;;;5.65;;
60851;SDS011;48553;50.766;2.900;2022-07-11T02:47:55;8.93;;;5.82;;
60851;SDS011;48553;50.766;2.900;2022-07-11T02:50:55;7.75;;;5.50;;
60851;SDS011;48553;50.766;2.900;2022-07-11T02:53:56;7.85;;;5.63;;
60851;SDS011;48553;50.766;2.900;2022-07-11T02:56:56;8.70;;;5.70;;
60851;SDS011;48553;50.766;2.900;2022-07-11T02:59:57;10.43;;;6.20;;
60851;SDS011;48553;50.766;2.900;2022-07-11T03:02:57;9.75;;;6.47;;
60851;SDS011;48553;50.766;2.900;2022-07-11T03:05:58;9.95;;;5.80;;
60851;SDS011;48553;50.766;2.900;2022-07-11T03:08:58;8.52;;;5.90;;
60851;SDS011;48553;50.766;2.900;2022-07-11T03:11:59;9.27;;;6.05;;
60851;SDS011;48553;50.766;2.900;2022-07-11T03:14:59;9.25;;;5.80;;
60851;SDS011;48553;50.766;2.900;2022-07-11T03:18:00;7.93;;;5.70;;
60851;SDS011;48553;50.766;2.900;2022-07-11T03:21:00;9.73;;;5.78;;
60851;SDS011;48553;50.766;2.900;2022-07-11T03:24:01;7.80;;;5.85;;
60851;SDS011;48553;50.766;2.900;2022-07-11T03:27:01;9.63;;;6.00;;
60851;SDS011;48553;50.766;2.900;2022-07-11T03:30:02;9.45;;;5.97;;
60851;SDS011;48553;50.766;2.900;2022-07-11T03:33:03;9.57;;;6.15;;
60851;SDS011;48553;50.766;2.900;2022-07-11T03:36:03;10.65;;;5.95;;
60851;SDS011;48553;50.766;2.900;2022-07-11T03:39:04;7.80;;;5.60;;
60851;SDS011;48553;50.766;2.900;2022-07-11T03:42:05;10.40;;;6.28;;
60851;SDS011;48553;50.766;2.900;2022-07-11T03:45:05;8.48;;;5.78;;
60851;SDS011;48553;50.766;2.900;2022-07-11T03:48:06;8.25;;;5.88;;
60851;SDS011;48553;50.766;2.900;2022-07-11T03:51:07;8.77;;;5.80;;
60851;SDS011;48553;50.766;2.900;2022-07-11T03:54:08;9.13;;;5.93;;
60851;SDS011;48553;50.766;2.900;2022-07-11T03:57:09;10.45;;;6.20;;
60851;SDS011;48553;50.766;2.900;2022-07-11T04:00:09;8.02;;;5.65;;
60851;SDS011;48553;50.766;2.900;2022-07-11T04:03:11;8.70;;;6.13;;
60851;SDS011;48553;50.766;2.900;2022-07-11T04:06:12;7.97;;;5.30;;
60851;SDS011;48553;50.766;2.900;2022-07-11T04:09:13;8.95;;;5.63;;
60851;SDS011;48553;50.766;2.900;2022-07-11T04:12:13;10.68;;;5.95;;
60851;SDS011;48553;50.766;2.900;2022-07-11T04:15:14;9.48;;;6.10;;
60851;SDS011;48553;50.766;2.900;2022-07-11T04:18:14;8.52;;;6.13;;
60851;SDS011;48553;50.766;2.900;2022-07-11T04:21:15;9.77;;;6.38;;
60851;SDS011;48553;50.766;2.900;2022-07-11T04:24:15;8.60;;;5.97;;
60851;SDS011;48553;50.766;2.900;2022-07-11T04:27:16;10.30;;;6.43;;
60851;SDS011;48553;50.766;2.900;2022-07-11T04:30:16;9.50;;;6.18;;
60851;SDS011;48553;50.766;2.900;2022-07-11T04:33:16;12.55;;;7.00;;
60851;SDS011;48553;50.766;2.900;2022-07-11T04:36:17;9.88;;;6.75;;
60851;SDS011;48553;50.766;2.900;2022-07-11T04:39:18;10.00;;;6.50;;
60851;SDS011;48553;50.766;2.900;2022-07-11T04:42:18;10.13;;;6.72;;
60851;SDS011;48553;50.766;2.900;2022-07-11T04:45:19;10.40;;;5.95;;
60851;SDS011;48553;50.766;2.900;2022-07-11T04:48:19;8.38;;;6.22;;
60851;SDS011;48553;50.766;2.900;2022-07-11T04:51:20;11.38;;;6.75;;
60851;SDS011;48553;50.766;2.900;2022-07-11T04:54:22;9.57;;;6.63;;
60851;SDS011;48553;50.766;2.900;2022-07-11T04:57:22;11.90;;;6.80;;
60851;SDS011;48553;50.766;2.900;2022-07-11T05:00:23;9.60;;;6.47;;
60851;SDS011;48553;50.766;2.900;2022-07-11T05:03:23;8.80;;;6.47;;
60851;SDS011;48553;50.766;2.900;2022-07-11T05:06:24;8.48;;;6.22;;
60851;SDS011;48553;50.766;2.900;2022-07-11T05:09:25;12.85;;;6.55;;
60851;SDS011;48553;50.766;2.900;2022-07-11T05:12:26;10.77;;;6.07;;
60851;SDS011;48553;50.766;2.900;2022-07-11T05:15:26;11.10;;;6.47;;
60851;SDS011;48553;50.766;2.900;2022-07-11T05:18:27;10.13;;;6.15;;
60851;SDS011;48553;50.766;2.900;2022-07-11T05:21:28;9.48;;;6.13;;
60851;SDS011;48553;50.766;2.900;2022-07-11T05:24:28;9.77;;;6.45;;
60851;SDS011;48553;50.766;2.900;2022-07-11T05:27:29;8.35;;;6.30;;
60851;SDS011;48553;50.766;2.900;2022-07-11T05:30:29;10.23;;;6.20;;
60851;SDS011;48553;50.766;2.900;2022-07-11T05:33:29;9.95;;;6.05;;
60851;SDS011;48553;50.766;2.900;2022-07-11T05:36:30;9.48;;;5.80;;
60851;SDS011;48553;50.766;2.900;2022-07-11T05:39:30;8.48;;;5.55;;
60851;SDS011;48553;50.766;2.900;2022-07-11T05:42:31;9.23;;;5.63;;
60851;SDS011;48553;50.766;2.900;2022-07-11T05:45:32;9.63;;;5.47;;
60851;SDS011;48553;50.766;2.900;2022-07-11T05:48:32;10.63;;;5.85;;
60851;SDS011;48553;50.766;2.900;2022-07-11T05:51:32;9.02;;;5.35;;
60851;SDS011;48553;50.766;2.900;2022-07-11T05:54:33;6.75;;;4.82;;
60851;SDS011;48553;50.766;2.900;2022-07-11T05:57:33;9.52;;;4.88;;
60851;SDS011;48553;50.766;2.900;2022-07-11T06:00:34;6.03;;;4.55;;
60851;SDS011;48553;50.766;2.900;2022-07-11T06:03:34;7.88;;;4.28;;
60851;SDS011;48553;50.766;2.900;2022-07-11T06:06:35;9.05;;;4.55;;
60851;SDS011;48553;50.766;2.900;2022-07-11T06:09:36;7.35;;;4.10;;
60851;SDS011;48553;50.766;2.900;2022-07-11T06:12:36;6.80;;;4.00;;
60851;SDS011;48553;50.766;2.900;2022-07-11T06:15:36;6.25;;;4.18;;
60851;SDS011;48553;50.766;2.900;2022-07-11T06:18:38;7.95;;;5.22;;
60851;SDS011;48553;50.766;2.900;2022-07-11T06:21:39;9.27;;;5.50;;
60851;SDS011;48553;50.766;2.900;2022-07-11T06:24:39;8.40;;;5.20;;
60851;SDS011;48553;50.766;2.900;2022-07-11T06:27:40;9.45;;;5.50;;
60851;SDS011;48553;50.766;2.900;2022-07-11T06:30:40;10.63;;;6.38;;
60851;SDS011;48553;50.766;2.900;2022-07-11T06:33:40;10.75;;;5.82;;
60851;SDS011;48553;50.766;2.900;2022-07-11T06:36:41;11.45;;;7.47;;
60851;SDS011;48553;50.766;2.900;2022-07-11T06:39:41;10.50;;;6.57;;
60851;SDS011;48553;50.766;2.900;2022-07-11T06:42:42;10.52;;;6.72;;
60851;SDS011;48553;50.766;2.900;2022-07-11T06:45:42;12.48;;;7.60;;
60851;SDS011;48553;50.766;2.900;2022-07-11T06:48:43;11.25;;;7.40;;
60851;SDS011;48553;50.766;2.900;2022-07-11T06:51:43;13.90;;;6.57;;
60851;SDS011;48553;50.766;2.900;2022-07-11T06:54:44;11.90;;;7.47;;
60851;SDS011;48553;50.766;2.900;2022-07-11T06:57:45;11.52;;;7.22;;
60851;SDS011;48553;50.766;2.900;2022-07-11T07:00:45;9.50;;;6.18;;
60851;SDS011;48553;50.766;2.900;2022-07-11T07:03:45;13.88;;;6.97;;
60851;SDS011;48553;50.766;2.900;2022-07-11T07:06:46;13.18;;;7.07;;
60851;SDS011;48553;50.766;2.900;2022-07-11T07:09:46;10.70;;;6.35;;
60851;SDS011;48553;50.766;2.900;2022-07-11T07:12:47;11.07;;;6.07;;
60851;SDS011;48553;50.766;2.900;2022-07-11T07:15:48;10.50;;;5.55;;
60851;SDS011;48553;50.766;2.900;2022-07-11T07:18:48;9.85;;;5.38;;
60851;SDS011;48553;50.766;2.900;2022-07-11T07:21:50;10.27;;;5.47;;
60851;SDS011;48553;50.766;2.900;2022-07-11T07:24:51;7.18;;;5.10;;
60851;SDS011;48553;50.766;2.900;2022-07-11T07:27:52;10.90;;;5.60;;
60851;SDS011;48553;50.766;2.900;2022-07-11T07:30:52;9.57;;;6.25;;
60851;SDS011;48553;50.766;2.900;2022-07-11T07:33:53;13.60;;;6.75;;
60851;SDS011;48553;50.766;2.900;2022-07-11T07:36:53;13.70;;;6.82;;
60851;SDS011;48553;50.766;2.900;2022-07-11T07:39:54;11.30;;;6.63;;
60851;SDS011;48553;50.766;2.900;2022-07-11T07:42:54;14.68;;;7.75;;
60851;SDS011;48553;50.766;2.900;2022-07-11T07:45:55;13.52;;;6.88;;
60851;SDS011;48553;50.766;2.900;2022-07-11T07:48:55;13.00;;;6.50;;
60851;SDS011;48553;50.766;2.900;2022-07-11T07:51:56;12.07;;;7.53;;
60851;SDS011;48553;50.766;2.900;2022-07-11T07:54:56;13.57;;;6.82;;
60851;SDS011;48553;50.766;2.900;2022-07-11T07:57:57;10.68;;;6.63;;
60851;SDS011;48553;50.766;2.900;2022-07-11T08:00:57;10.27;;;6.95;;
60851;SDS011;48553;50.766;2.900;2022-07-11T08:04:16;11.55;;;7.15;;
60851;SDS011;48553;50.766;2.900;2022-07-11T08:07:17;12.15;;;6.18;;
60851;SDS011;48553;50.766;2.900;2022-07-11T08:10:17;9.27;;;6.68;;
60851;SDS011;48553;50.766;2.900;2022-07-11T08:13:18;11.32;;;6.50;;
60851;SDS011;48553;50.766;2.900;2022-07-11T08:16:19;9.43;;;5.38;;
60851;SDS011;48553;50.766;2.900;2022-07-11T08:19:20;9.07;;;5.60;;
60851;SDS011;48553;50.766;2.900;2022-07-11T08:22:20;11.27;;;5.45;;
60851;SDS011;48553;50.766;2.900;2022-07-11T08:25:21;10.13;;;4.95;;
60851;SDS011;48553;50.766;2.900;2022-07-11T08:28:21;8.32;;;4.50;;
60851;SDS011;48553;50.766;2.900;2022-07-11T08:31:22;10.35;;;5.55;;
60851;SDS011;48553;50.766;2.900;2022-07-11T08:34:23;9.75;;;4.80;;
60851;SDS011;48553;50.766;2.900;2022-07-11T08:37:24;8.82;;;4.25;;
60851;SDS011;48553;50.766;2.900;2022-07-11T08:40:25;6.03;;;3.65;;
60851;SDS011;48553;50.766;2.900;2022-07-11T08:43:27;6.10;;;3.50;;
60851;SDS011;48553;50.766;2.900;2022-07-11T08:46:29;8.05;;;3.70;;
60851;SDS011;48553;50.766;2.900;2022-07-11T08:49:29;6.00;;;3.40;;
60851;SDS011;48553;50.766;2.900;2022-07-11T08:52:34;5.43;;;3.45;;
60851;SDS011;48553;50.766;2.900;2022-07-11T08:55:34;7.80;;;3.57;;
60851;SDS011;48553;50.766;2.900;2022-07-11T08:58:36;6.03;;;3.47;;
60851;SDS011;48553;50.766;2.900;2022-07-11T09:01:37;4.70;;;2.60;;
60851;SDS011;48553;50.766;2.900;2022-07-11T09:04:43;4.93;;;3.13;;
60851;SDS011;48553;50.766;2.900;2022-07-11T09:07:45;4.72;;;2.75;;
60851;SDS011;48553;50.766;2.900;2022-07-11T09:10:46;4.95;;;2.95;;
60851;SDS011;48553;50.766;2.900;2022-07-11T09:13:47;7.68;;;3.85;;
60851;SDS011;48553;50.766;2.900;2022-07-11T09:16:51;7.50;;;3.60;;
60851;SDS011;48553;50.766;2.900;2022-07-11T09:19:59;6.43;;;2.70;;
60851;SDS011;48553;50.766;2.900;2022-07-11T09:22:59;5.10;;;2.72;;
60851;SDS011;48553;50.766;2.900;2022-07-11T09:26:18;5.32;;;2.80;;
60851;SDS011;48553;50.766;2.900;2022-07-11T09:29:20;5.22;;;2.50;;
60851;SDS011;48553;50.766;2.900;2022-07-11T09:35:26;5.22;;;2.47;;
60851;SDS011;48553;50.766;2.900;2022-07-11T09:38:31;3.78;;;2.50;;
60851;SDS011;48553;50.766;2.900;2022-07-11T09:41:35;4.10;;;2.25;;
60851;SDS011;48553;50.766;2.900;2022-07-11T09:44:36;5.70;;;3.05;;
60851;SDS011;48553;50.766;2.900;2022-07-11T09:47:43;6.45;;;2.58;;
60851;SDS011;48553;50.766;2.900;2022-07-11T09:50:54;5.10;;;2.70;;
60851;SDS011;48553;50.766;2.900;2022-07-11T09:53:56;7.82;;;2.60;;
60851;SDS011;48553;50.766;2.900;2022-07-11T09:56:57;9.02;;;2.22;;
60851;SDS011;48553;50.766;2.900;2022-07-11T09:59:58;9.75;;;1.80;;
60851;SDS011;48553;50.766;2.900;2022-07-11T10:02:59;6.85;;;1.83;;
60851;SDS011;48553;50.766;2.900;2022-07-11T10:06:00;4.30;;;1.63;;
60851;SDS011;48553;50.766;2.900;2022-07-11T10:09:01;5.78;;;1.80;;
60851;SDS011;48553;50.766;2.900;2022-07-11T10:12:02;3.20;;;1.60;;
60851;SDS011;48553;50.766;2.900;2022-07-11T10:15:04;3.85;;;1.33;;
60851;SDS011;48553;50.766;2.900;2022-07-11T10:21:21;3.60;;;1.60;;
60851;SDS011;48553;50.766;2.900;2022-07-11T10:24:39;2.65;;;1.65;;
60851;SDS011;48553;50.766;2.900;2022-07-11T10:27:49;4.47;;;1.90;;
60851;SDS011;48553;50.766;2.900;2022-07-11T10:31:21;3.90;;;1.55;;
60851;SDS011;48553;50.766;2.900;2022-07-11T10:34:26;3.47;;;1.55;;
60851;SDS011;48553;50.766;2.900;2022-07-11T10:37:28;4.70;;;1.40;;
60851;SDS011;48553;50.766;2.900;2022-07-11T10:43:52;2.08;;;1.40;;
60851;SDS011;48553;50.766;2.900;2022-07-11T10:46:52;4.47;;;1.35;;
60851;SDS011;48553;50.766;2.900;2022-07-11T10:49:53;4.65;;;1.30;;
60851;SDS011;48553;50.766;2.900;2022-07-11T10:52:56;2.40;;;1.27;;
60851;SDS011;48553;50.766;2.900;2022-07-11T10:56:14;3.63;;;1.45;;
60851;SDS011;48553;50.766;2.900;2022-07-11T10:59:22;2.83;;;1.30;;
60851;SDS011;48553;50.766;2.900;2022-07-11T11:02:22;2.35;;;1.30;;
60851;SDS011;48553;50.766;2.900;2022-07-11T11:08:49;2.75;;;1.20;;
60851;SDS011;48553;50.766;2.900;2022-07-11T11:11:49;4.03;;;1.20;;
60851;SDS011;48553;50.766;2.900;2022-07-11T11:14:50;2.95;;;1.38;;
60851;SDS011;48553;50.766;2.900;2022-07-11T11:21:25;2.40;;;1.20;;
60851;SDS011;48553;50.766;2.900;2022-07-11T11:24:26;3.88;;;1.40;;
60851;SDS011;48553;50.766;2.900;2022-07-11T11:27:26;1.95;;;1.13;;
60851;SDS011;48553;50.766;2.900;2022-07-11T11:30:27;2.42;;;1.27;;
60851;SDS011;48553;50.766;2.900;2022-07-11T11:33:29;2.47;;;1.20;;
60851;SDS011;48553;50.766;2.900;2022-07-11T11:36:30;2.15;;;1.02;;
60851;SDS011;48553;50.766;2.900;2022-07-11T11:39:32;4.18;;;1.30;;
60851;SDS011;48553;50.766;2.900;2022-07-11T11:42:38;2.50;;;1.00;;
60851;SDS011;48553;50.766;2.900;2022-07-11T11:45:46;3.80;;;1.20;;
60851;SDS011;48553;50.766;2.900;2022-07-11T11:48:47;1.92;;;1.00;;
60851;SDS011;48553;50.766;2.900;2022-07-11T11:51:47;3.03;;;1.10;;
60851;SDS011;48553;50.766;2.900;2022-07-11T11:54:52;2.33;;;0.90;;
60851;SDS011;48553;50.766;2.900;2022-07-11T11:57:57;2.35;;;1.00;;
60851;SDS011;48553;50.766;2.900;2022-07-11T12:00:57;1.83;;;1.00;;
60851;SDS011;48553;50.766;2.900;2022-07-11T12:04:02;4.47;;;0.85;;
60851;SDS011;48553;50.766;2.900;2022-07-11T12:07:07;1.75;;;1.00;;
60851;SDS011;48553;50.766;2.900;2022-07-11T12:10:07;1.75;;;0.88;;
60851;SDS011;48553;50.766;2.900;2022-07-11T12:13:08;1.98;;;1.00;;
60851;SDS011;48553;50.766;2.900;2022-07-11T12:16:15;2.10;;;0.95;;
60851;SDS011;48553;50.766;2.900;2022-07-11T12:19:35;4.28;;;1.10;;
60851;SDS011;48553;50.766;2.900;2022-07-11T12:22:42;1.63;;;0.80;;
60851;SDS011;48553;50.766;2.900;2022-07-11T12:25:43;2.53;;;1.10;;
60851;SDS011;48553;50.766;2.900;2022-07-11T12:32:14;1.75;;;1.00;;
60851;SDS011;48553;50.766;2.900;2022-07-11T12:35:14;4.45;;;1.08;;
60851;SDS011;48553;50.766;2.900;2022-07-11T12:38:15;2.25;;;1.00;;
60851;SDS011;48553;50.766;2.900;2022-07-11T12:41:15;3.35;;;1.05;;
60851;SDS011;48553;50.766;2.900;2022-07-11T12:44:20;2.28;;;1.00;;
60851;SDS011;48553;50.766;2.900;2022-07-11T12:47:50;2.30;;;1.00;;
60851;SDS011;48553;50.766;2.900;2022-07-11T12:50:53;2.80;;;1.10;;
60851;SDS011;48553;50.766;2.900;2022-07-11T12:54:01;2.22;;;1.13;;
60851;SDS011;48553;50.766;2.900;2022-07-11T12:57:03;2.97;;;1.00;;
60851;SDS011;48553;50.766;2.900;2022-07-11T13:00:10;1.77;;;0.98;;
60851;SDS011;48553;50.766;2.900;2022-07-11T13:03:16;2.85;;;0.90;;
60851;SDS011;48553;50.766;2.900;2022-07-11T13:06:41;1.92;;;0.90;;
60851;SDS011;48553;50.766;2.900;2022-07-11T13:10:01;2.10;;;1.00;;
60851;SDS011;48553;50.766;2.900;2022-07-11T13:13:02;2.22;;;1.08;;
60851;SDS011;48553;50.766;2.900;2022-07-11T13:16:03;3.05;;;1.00;;
60851;SDS011;48553;50.766;2.900;2022-07-11T13:19:04;1.45;;;0.90;;
60851;SDS011;48553;50.766;2.900;2022-07-11T13:22:05;2.08;;;1.00;;
60851;SDS011;48553;50.766;2.900;2022-07-11T13:25:05;2.50;;;1.08;;
60851;SDS011;48553;50.766;2.900;2022-07-11T13:28:07;3.88;;;1.10;;
60851;SDS011;48553;50.766;2.900;2022-07-11T13:31:08;2.22;;;0.93;;
60851;SDS011;48553;50.766;2.900;2022-07-11T13:34:09;3.47;;;1.20;;
60851;SDS011;48553;50.766;2.900;2022-07-11T13:37:10;1.77;;;1.10;;
60851;SDS011;48553;50.766;2.900;2022-07-11T13:40:28;2.50;;;1.00;;
60851;SDS011;48553;50.766;2.900;2022-07-11T13:43:29;1.35;;;1.00;;
60851;SDS011;48553;50.766;2.900;2022-07-11T13:46:30;2.90;;;0.95;;
60851;SDS011;48553;50.766;2.900;2022-07-11T13:49:30;2.83;;;1.13;;
60851;SDS011;48553;50.766;2.900;2022-07-11T13:52:31;3.20;;;1.08;;
60851;SDS011;48553;50.766;2.900;2022-07-11T13:55:32;3.15;;;1.00;;
60851;SDS011;48553;50.766;2.900;2022-07-11T13:58:33;2.13;;;1.00;;
60851;SDS011;48553;50.766;2.900;2022-07-11T14:01:33;2.65;;;1.05;;
60851;SDS011;48553;50.766;2.900;2022-07-11T14:04:34;2.38;;;1.00;;
60851;SDS011;48553;50.766;2.900;2022-07-11T14:07:34;2.65;;;0.90;;
60851;SDS011;48553;50.766;2.900;2022-07-11T14:10:35;1.90;;;0.90;;
60851;SDS011;48553;50.766;2.900;2022-07-11T14:13:36;3.28;;;1.00;;
60851;SDS011;48553;50.766;2.900;2022-07-11T14:16:36;4.53;;;1.08;;
60851;SDS011;48553;50.766;2.900;2022-07-11T14:19:37;1.60;;;0.90;;
60851;SDS011;48553;50.766;2.900;2022-07-11T14:22:39;3.67;;;1.10;;
60851;SDS011;48553;50.766;2.900;2022-07-11T14:25:42;2.80;;;1.20;;
60851;SDS011;48553;50.766;2.900;2022-07-11T14:28:43;2.05;;;1.00;;
60851;SDS011;48553;50.766;2.900;2022-07-11T14:31:43;2.88;;;1.00;;
60851;SDS011;48553;50.766;2.900;2022-07-11T14:34:44;2.22;;;1.00;;
60851;SDS011;48553;50.766;2.900;2022-07-11T14:37:44;5.57;;;1.10;;
60851;SDS011;48553;50.766;2.900;2022-07-11T14:40:45;2.28;;;0.95;;
60851;SDS011;48553;50.766;2.900;2022-07-11T14:43:46;1.80;;;0.98;;
60851;SDS011;48553;50.766;2.900;2022-07-11T14:46:46;2.53;;;0.90;;
60851;SDS011;48553;50.766;2.900;2022-07-11T14:49:47;2.42;;;1.00;;
60851;SDS011;48553;50.766;2.900;2022-07-11T14:52:47;1.95;;;0.90;;
60851;SDS011;48553;50.766;2.900;2022-07-11T14:55:48;2.20;;;1.10;;
60851;SDS011;48553;50.766;2.900;2022-07-11T14:58:49;2.20;;;1.10;;
60851;SDS011;48553;50.766;2.900;2022-07-11T15:01:49;2.20;;;1.00;;
60851;SDS011;48553;50.766;2.900;2022-07-11T15:04:50;1.52;;;1.02;;
60851;SDS011;48553;50.766;2.900;2022-07-11T15:07:51;2.47;;;1.10;;
60851;SDS011;48553;50.766;2.900;2022-07-11T15:11:10;1.40;;;0.93;;
60851;SDS011;48553;50.766;2.900;2022-07-11T15:14:22;3.75;;;1.10;;
60851;SDS011;48553;50.766;2.900;2022-07-11T15:17:25;2.08;;;1.10;;
60851;SDS011;48553;50.766;2.900;2022-07-11T15:20:25;2.20;;;1.00;;
60851;SDS011;48553;50.766;2.900;2022-07-11T15:23:26;3.60;;;1.20;;
60851;SDS011;48553;50.766;2.900;2022-07-11T15:26:26;3.03;;;1.08;;
60851;SDS011;48553;50.766;2.900;2022-07-11T15:29:28;2.65;;;1.10;;
60851;SDS011;48553;50.766;2.900;2022-07-11T15:32:30;1.83;;;1.00;;
60851;SDS011;48553;50.766;2.900;2022-07-11T15:35:30;1.77;;;1.05;;
60851;SDS011;48553;50.766;2.900;2022-07-11T15:38:31;2.38;;;1.10;;
60851;SDS011;48553;50.766;2.900;2022-07-11T15:41:31;2.92;;;1.20;;
60851;SDS011;48553;50.766;2.900;2022-07-11T15:44:32;3.58;;;1.02;;
60851;SDS011;48553;50.766;2.900;2022-07-11T15:47:32;1.95;;;1.00;;
60851;SDS011;48553;50.766;2.900;2022-07-11T15:50:33;2.67;;;1.00;;
60851;SDS011;48553;50.766;2.900;2022-07-11T15:53:34;2.65;;;1.08;;
60851;SDS011;48553;50.766;2.900;2022-07-11T15:56:35;2.33;;;0.93;;
60851;SDS011;48553;50.766;2.900;2022-07-11T15:59:35;3.10;;;1.00;;
60851;SDS011;48553;50.766;2.900;2022-07-11T16:02:36;3.58;;;1.02;;
60851;SDS011;48553;50.766;2.900;2022-07-11T16:05:36;1.38;;;0.90;;
60851;SDS011;48553;50.766;2.900;2022-07-11T16:08:38;2.10;;;0.82;;
60851;SDS011;48553;50.766;2.900;2022-07-11T16:11:39;1.70;;;0.90;;
60851;SDS011;48553;50.766;2.900;2022-07-11T16:14:39;1.70;;;0.90;;
60851;SDS011;48553;50.766;2.900;2022-07-11T16:17:41;1.50;;;0.90;;
60851;SDS011;48553;50.766;2.900;2022-07-11T16:20:42;1.60;;;0.80;;
60851;SDS011;48553;50.766;2.900;2022-07-11T16:23:44;1.65;;;0.98;;
60851;SDS011;48553;50.766;2.900;2022-07-11T16:26:45;1.80;;;0.80;;
60851;SDS011;48553;50.766;2.900;2022-07-11T16:29:47;1.92;;;0.80;;
60851;SDS011;48553;50.766;2.900;2022-07-11T16:32:47;2.00;;;0.90;;
60851;SDS011;48553;50.766;2.900;2022-07-11T16:35:48;2.13;;;0.93;;
60851;SDS011;48553;50.766;2.900;2022-07-11T16:38:48;3.05;;;0.95;;
60851;SDS011;48553;50.766;2.900;2022-07-11T16:42:09;2.90;;;0.90;;
60851;SDS011;48553;50.766;2.900;2022-07-11T16:45:29;1.92;;;0.80;;
60851;SDS011;48553;50.766;2.900;2022-07-11T16:48:30;2.60;;;1.00;;
60851;SDS011;48553;50.766;2.900;2022-07-11T16:51:34;1.63;;;0.68;;
60851;SDS011;48553;50.766;2.900;2022-07-11T16:54:34;2.47;;;0.90;;
60851;SDS011;48553;50.766;2.900;2022-07-11T16:57:37;1.20;;;0.82;;
60851;SDS011;48553;50.766;2.900;2022-07-11T17:00:38;1.40;;;0.90;;
60851;SDS011;48553;50.766;2.900;2022-07-11T17:03:39;1.75;;;0.80;;
60851;SDS011;48553;50.766;2.900;2022-07-11T17:06:39;3.58;;;0.93;;
60851;SDS011;48553;50.766;2.900;2022-07-11T17:09:40;1.38;;;0.73;;
60851;SDS011;48553;50.766;2.900;2022-07-11T17:12:40;2.15;;;0.90;;
60851;SDS011;48553;50.766;2.900;2022-07-11T17:15:41;2.38;;;0.95;;
60851;SDS011;48553;50.766;2.900;2022-07-11T17:18:41;2.78;;;1.00;;
60851;SDS011;48553;50.766;2.900;2022-07-11T17:21:42;1.77;;;0.90;;
60851;SDS011;48553;50.766;2.900;2022-07-11T17:24:43;2.15;;;0.82;;
60851;SDS011;48553;50.766;2.900;2022-07-11T17:27:43;2.22;;;0.88;;
60851;SDS011;48553;50.766;2.900;2022-07-11T17:30:46;2.40;;;0.80;;
60851;SDS011;48553;50.766;2.900;2022-07-11T17:33:48;1.83;;;0.80;;
60851;SDS011;48553;50.766;2.900;2022-07-11T17:36:48;1.40;;;0.70;;
60851;SDS011;48553;50.766;2.900;2022-07-11T17:39:49;1.33;;;0.60;;
60851;SDS011;48553;50.766;2.900;2022-07-11T17:42:51;1.25;;;0.70;;
60851;SDS011;48553;50.766;2.900;2022-07-11T17:45:51;2.65;;;0.75;;
60851;SDS011;48553;50.766;2.900;2022-07-11T17:48:52;2.42;;;0.90;;
60851;SDS011;48553;50.766;2.900;2022-07-11T17:51:52;2.25;;;0.80;;
60851;SDS011;48553;50.766;2.900;2022-07-11T17:58:03;1.33;;;0.70;;
60851;SDS011;48553;50.766;2.900;2022-07-11T18:01:04;1.63;;;0.90;;
60851;SDS011;48553;50.766;2.900;2022-07-11T18:04:05;2.72;;;0.73;;
60851;SDS011;48553;50.766;2.900;2022-07-11T18:07:05;2.85;;;1.00;;
60851;SDS011;48553;50.766;2.900;2022-07-11T18:10:06;2.33;;;0.90;;
60851;SDS011;48553;50.766;2.900;2022-07-11T18:13:07;1.38;;;0.70;;
60851;SDS011;48553;50.766;2.900;2022-07-11T18:16:08;1.45;;;0.75;;
60851;SDS011;48553;50.766;2.900;2022-07-11T18:19:08;1.52;;;0.80;;
60851;SDS011;48553;50.766;2.900;2022-07-11T18:22:08;4.45;;;0.90;;
60851;SDS011;48553;50.766;2.900;2022-07-11T18:25:10;1.52;;;0.90;;
60851;SDS011;48553;50.766;2.900;2022-07-11T18:28:11;1.25;;;0.60;;
60851;SDS011;48553;50.766;2.900;2022-07-11T18:31:12;2.83;;;0.80;;
60851;SDS011;48553;50.766;2.900;2022-07-11T18:34:12;2.10;;;0.80;;
60851;SDS011;48553;50.766;2.900;2022-07-11T18:37:13;1.85;;;0.75;;